Airfield :
LOGIN :

Register | Disclaimer

   EN    FR    IT 

 










Legend :    VFR   Marginal VFR   IFR   Intensive IFR   Very Intensive IFR
Visi :
Ceiling :
>= 8 km
>= 3000ft
5 to 8 km
1000 to 3000 ft
1500m to 5 km
500 to 1000 ft
800 to 1500m
200 to 500 ft
< 800m
< 200 ft
Symbols :   Thunderstorms  Fog  Heavy snow  Heavy precipitations  Wind > 20 kt
SIGMETs :     Misc.  Thunderstorms  Icing  Turbulence  Mountain Waves  Volcanic Ashes







- Airport Elevation : 290 ft
- IATA code : ACI
- Download approach charts


EGJA - Alderney

CURRENT METAR :
  • 211050Z 27022KT 9999 SCT035 15/07 Q1015

EXPIRED METARs :
  • 211020Z 28024KT 9999 SCT030 15/07 Q1015
  • 210950Z 28021KT 9999 SCT030 14/06 Q1014
  • 210920Z 27020G30KT 9999 SCT030 14/07 Q1014
  • 210850Z 27020G32KT 9999 SCT030 14/08 Q1014
  • 210820Z 29019G29KT 9999 SCT030 14/07 Q1013

TAF TAF EGJA
Valid from the 21 at 09:00 until the 21 at 18:00 UTC


210801Z 2109/2118 29020G30KT 9999 FEW025
PROB30
TEMPO 2109/2118 6000 SHRA
No reported NOTAMs for that airfield.



MET'MAP, your aeronautical weather chart ! - Copyright ORBIFLY December 2007 - Disclaimer

ORBIFLY MET'MAP TEAM :

Programming & Development : Alexandra Zaïnal
Concept & Development : Baudouin d'Aumeries
Co-Development & Prog : Marc-Olivier Méhu
Technical & hardware support : Manuel Goepfert

Contact : metmap@orbifly.com




SOURCES & CREDITS :

   NOAA